Time;durP1;ratioP1;P1;durP2;ratioP2;P2;SDS_P1;SDS_P2;PMS_P1;PMS_P2;Temp;Humidity;BMP_temperature;BMP_pressure;BME280_temperature;BME280_humidity;BME280_pressure;Samples;Min_cycle;Max_cycle;Signal;HPM_P1;HPM_P2
2022/07/04 00:00:11;;;;;;;203.35;138.52;;;;;;;;;;4994885;28;20182;-51
2022/07/04 00:02:38;;;;;;;194.98;136.30;;;;;;;;;;4990025;28;20232;-51
2022/07/04 00:05:04;;;;;;;154.38;129.30;;;;;;;;;;4988939;28;23510;-51
2022/07/04 00:07:30;;;;;;;196.65;138.80;;;;;;;;;;4990225;28;20216;-51
2022/07/04 00:09:56;;;;;;;145.20;125.28;;;;;;;;;;4993890;28;20224;-52
2022/07/04 00:12:22;;;;;;;158.27;127.90;;;;;;;;;;4987061;28;20705;-51
2022/07/04 00:14:48;;;;;;;159.57;129.93;;;;;;;;;;4985698;28;20185;-51
2022/07/04 00:17:14;;;;;;;230.10;151.10;;;;;;;;;;4983858;28;20224;-51
2022/07/04 00:19:40;;;;;;;177.07;135.02;;;;;;;;;;4987116;28;20224;-51
2022/07/04 00:22:06;;;;;;;137.80;123.07;;;;;;;;;;4986786;28;20224;-52
2022/07/04 00:24:32;;;;;;;131.68;117.90;;;;;;;;;;4988358;28;20681;-51
2022/07/04 00:26:58;;;;;;;141.27;124.85;;;;;;;;;;4996397;28;20201;-51
2022/07/04 00:29:24;;;;;;;222.52;147.65;;;;;;;;;;4992027;28;20220;-51
2022/07/04 00:31:50;;;;;;;178.40;134.40;;;;;;;;;;4985498;28;20239;-50
2022/07/04 00:34:16;;;;;;;205.15;141.35;;;;;;;;;;4990084;28;20219;-52
2022/07/04 00:36:42;;;;;;;192.32;135.05;;;;;;;;;;4992151;28;20220;-53
2022/07/04 00:39:08;;;;;;;122.60;112.28;;;;;;;;;;4993457;28;20196;-51
2022/07/04 00:41:33;;;;;;;228.65;151.32;;;;;;;;;;4989829;28;20277;-51
2022/07/04 00:44:00;;;;;;;166.63;129.80;;;;;;;;;;4989161;28;20360;-51
2022/07/04 00:46:26;;;;;;;326.17;195.75;;;;;;;;;;4985442;28;20785;-51
2022/07/04 00:48:52;;;;;;;181.65;147.32;;;;;;;;;;4984748;28;20217;-52
2022/07/04 00:51:18;;;;;;;202.13;154.30;;;;;;;;;;4985408;28;20208;-51
2022/07/04 00:53:45;;;;;;;159.27;141.75;;;;;;;;;;4990657;28;20215;-51
2022/07/04 00:56:11;;;;;;;218.27;162.85;;;;;;;;;;4986740;28;20224;-51
2022/07/04 00:58:37;;;;;;;248.95;173.40;;;;;;;;;;4987194;28;20215;-52
2022/07/04 01:01:03;;;;;;;159.10;142.55;;;;;;;;;;4990150;28;20313;-51
2022/07/04 01:03:29;;;;;;;215.52;168.35;;;;;;;;;;4982674;28;20217;-51
2022/07/04 01:05:56;;;;;;;172.68;153.10;;;;;;;;;;4984930;28;20209;-51
2022/07/04 01:08:22;;;;;;;232.60;173.38;;;;;;;;;;4988256;28;20219;-52
2022/07/04 01:10:48;;;;;;;183.13;151.77;;;;;;;;;;4984569;28;20247;-51
2022/07/04 01:13:23;;;;;;;199.15;158.98;;;;;;;;;;4987866;28;20244;-51
2022/07/04 01:15:50;;;;;;;212.98;159.82;;;;;;;;;;4983393;28;20220;-51
2022/07/04 01:18:16;;;;;;;165.23;146.48;;;;;;;;;;4991800;28;20185;-51
2022/07/04 01:20:42;;;;;;;183.50;149.75;;;;;;;;;;4987220;28;20220;-52
2022/07/04 01:23:08;;;;;;;180.23;151.85;;;;;;;;;;4992666;28;20228;-51
2022/07/04 01:25:34;;;;;;;220.75;160.20;;;;;;;;;;4991547;28;20609;-52
2022/07/04 01:28:00;;;;;;;161.90;134.77;;;;;;;;;;4996133;28;20386;-51
2022/07/04 01:30:27;;;;;;;174.07;137.85;;;;;;;;;;4987056;28;20232;-51
2022/07/04 01:32:53;;;;;;;178.88;141.90;;;;;;;;;;4988887;28;20267;-51
2022/07/04 01:35:19;;;;;;;143.45;127.75;;;;;;;;;;4990156;28;20220;-51
2022/07/04 01:37:45;;;;;;;173.13;137.88;;;;;;;;;;4987774;28;20224;-52
2022/07/04 01:40:12;;;;;;;149.23;129.82;;;;;;;;;;4988304;28;20216;-51
2022/07/04 01:42:38;;;;;;;216.25;149.75;;;;;;;;;;4988861;28;20307;-51
2022/07/04 01:45:05;;;;;;;168.70;133.20;;;;;;;;;;4989411;28;21462;-51
2022/07/04 01:47:31;;;;;;;208.52;149.25;;;;;;;;;;4990840;28;20224;-51
2022/07/04 01:49:57;;;;;;;145.30;129.43;;;;;;;;;;4983020;28;20220;-51
2022/07/04 01:52:23;;;;;;;148.20;132.23;;;;;;;;;;4985427;28;20217;-52
2022/07/04 01:54:48;;;;;;;202.10;146.15;;;;;;;;;;4984302;28;20220;-51
2022/07/04 01:57:14;;;;;;;143.20;127.70;;;;;;;;;;4994539;28;20262;-51
2022/07/04 02:02:25;;;;;;;232.88;155.50;;;;;;;;;;4980090;28;20296;-51
2022/07/04 02:04:51;;;;;;;221.48;150.48;;;;;;;;;;4983668;28;20217;-51
2022/07/04 02:07:18;;;;;;;134.23;120.57;;;;;;;;;;4987990;28;20696;-51
2022/07/04 02:09:44;;;;;;;160.95;132.98;;;;;;;;;;4981953;28;20212;-51
2022/07/04 02:14:54;;;;;;;160.80;128.65;;;;;;;;;;4985012;28;20315;-52
2022/07/04 02:17:21;;;;;;;150.32;125.47;;;;;;;;;;4986160;28;20693;-52
2022/07/04 02:19:47;;;;;;;260.58;157.68;;;;;;;;;;4980896;28;20704;-52
2022/07/04 02:22:13;;;;;;;209.85;141.27;;;;;;;;;;4986814;28;20217;-52
2022/07/04 02:24:39;;;;;;;166.63;134.48;;;;;;;;;;4987059;28;20607;-52
2022/07/04 02:27:05;;;;;;;213.85;148.20;;;;;;;;;;4985495;28;20197;-52
2022/07/04 02:29:32;;;;;;;118.93;107.38;;;;;;;;;;4989017;28;20223;-52
2022/07/04 02:31:58;;;;;;;186.75;134.00;;;;;;;;;;4986627;28;20732;-53
2022/07/04 02:34:24;;;;;;;158.77;125.35;;;;;;;;;;4991802;28;20227;-52
2022/07/04 02:36:50;;;;;;;225.50;148.48;;;;;;;;;;4983074;28;20229;-52
2022/07/04 02:39:16;;;;;;;159.75;123.43;;;;;;;;;;4983130;28;20500;-52
2022/07/04 02:41:42;;;;;;;146.32;122.45;;;;;;;;;;5004697;28;20269;-52
2022/07/04 02:44:08;;;;;;;184.07;133.57;;;;;;;;;;5001076;28;20217;-53
2022/07/04 02:46:34;;;;;;;151.93;127.43;;;;;;;;;;4990037;28;20221;-53
2022/07/04 02:49:01;;;;;;;166.20;132.77;;;;;;;;;;4984988;28;20216;-51
2022/07/04 02:51:27;;;;;;;142.65;123.38;;;;;;;;;;4986314;28;20358;-50
2022/07/04 02:53:53;;;;;;;210.85;140.63;;;;;;;;;;5006606;28;20737;-51
2022/07/04 02:56:19;;;;;;;161.18;128.23;;;;;;;;;;4990305;28;20217;-50
2022/07/04 02:58:45;;;;;;;143.63;122.95;;;;;;;;;;4994533;28;20312;-51
2022/07/04 03:01:12;;;;;;;129.70;115.50;;;;;;;;;;4989536;28;20304;-50
2022/07/04 03:03:39;;;;;;;169.35;127.53;;;;;;;;;;4992777;28;20204;-51
2022/07/04 03:06:05;;;;;;;186.35;131.70;;;;;;;;;;4987130;28;20198;-51
2022/07/04 03:08:31;;;;;;;165.00;130.10;;;;;;;;;;4988490;28;20337;-51
2022/07/04 03:10:57;;;;;;;149.10;110.47;;;;;;;;;;4991358;28;20217;-51
2022/07/04 03:13:24;;;;;;;189.98;110.95;;;;;;;;;;4990662;28;20616;-51
2022/07/04 03:15:50;;;;;;;114.40;87.07;;;;;;;;;;4985133;28;20307;-50
2022/07/04 03:18:16;;;;;;;139.07;92.80;;;;;;;;;;4992717;28;20273;-50
2022/07/04 03:20:42;;;;;;;179.57;110.90;;;;;;;;;;4987709;28;20245;-51
2022/07/04 03:23:08;;;;;;;183.27;112.78;;;;;;;;;;4985349;28;20224;-51
2022/07/04 03:25:34;;;;;;;155.90;106.10;;;;;;;;;;4990631;28;20221;-50
2022/07/04 03:28:00;;;;;;;186.85;106.57;;;;;;;;;;4989740;28;20213;-50
2022/07/04 03:30:26;;;;;;;192.00;111.72;;;;;;;;;;4988637;28;20225;-50
2022/07/04 03:32:51;;;;;;;155.02;93.75;;;;;;;;;;4987906;28;20190;-51
2022/07/04 03:35:17;;;;;;;154.52;98.78;;;;;;;;;;4987664;28;20217;-50
2022/07/04 03:37:43;;;;;;;175.40;100.90;;;;;;;;;;4982315;28;20217;-50
2022/07/04 03:40:10;;;;;;;128.98;91.80;;;;;;;;;;4992992;28;20723;-51
2022/07/04 03:42:36;;;;;;;104.32;79.88;;;;;;;;;;4994652;28;20276;-50
2022/07/04 03:45:01;;;;;;;114.13;85.95;;;;;;;;;;4994850;28;20180;-50
2022/07/04 03:47:27;;;;;;;208.45;102.18;;;;;;;;;;4987145;28;20224;-50
2022/07/04 03:49:53;;;;;;;165.25;93.82;;;;;;;;;;4990831;28;20217;-51
2022/07/04 03:52:19;;;;;;;150.00;84.93;;;;;;;;;;4985970;28;20252;-51
2022/07/04 03:54:45;;;;;;;159.18;89.50;;;;;;;;;;4988767;28;20336;-51
2022/07/04 03:57:11;;;;;;;156.75;89.72;;;;;;;;;;4996218;28;20205;-51
2022/07/04 03:59:37;;;;;;;116.15;79.55;;;;;;;;;;4990672;28;20688;-51
2022/07/04 04:02:03;;;;;;;165.85;86.68;;;;;;;;;;4989258;28;20229;-51
2022/07/04 04:07:13;;;;;;;92.38;56.45;;;;;;;;;;4988604;28;20292;-50
2022/07/04 04:09:39;;;;;;;122.78;72.07;;;;;;;;;;4987842;28;20741;-50
2022/07/04 04:12:06;;;;;;;174.48;80.45;;;;;;;;;;4985108;28;20268;-51
2022/07/04 04:14:32;;;;;;;137.15;71.72;;;;;;;;;;4987386;28;20216;-51
2022/07/04 04:16:58;;;;;;;194.60;86.82;;;;;;;;;;4988140;28;20231;-51
2022/07/04 04:19:23;;;;;;;123.35;72.07;;;;;;;;;;4995422;28;20547;-51
2022/07/04 04:21:49;;;;;;;175.25;79.90;;;;;;;;;;4999528;28;20223;-51
2022/07/04 04:24:15;;;;;;;173.38;80.20;;;;;;;;;;4985130;28;20188;-50
2022/07/04 04:26:41;;;;;;;107.38;60.63;;;;;;;;;;4990986;28;20205;-51
2022/07/04 04:29:07;;;;;;;137.80;69.57;;;;;;;;;;4990623;28;20217;-52
2022/07/04 04:31:33;;;;;;;100.00;56.55;;;;;;;;;;4989644;28;20313;-51
2022/07/04 04:33:59;;;;;;;98.97;65.25;;;;;;;;;;4995575;28;20296;-50
2022/07/04 04:36:25;;;;;;;183.60;78.97;;;;;;;;;;4979759;28;20221;-51
2022/07/04 04:38:51;;;;;;;162.20;71.88;;;;;;;;;;4985940;28;20252;-51
2022/07/04 04:41:17;;;;;;;165.30;76.07;;;;;;;;;;4992750;28;20220;-50
2022/07/04 04:43:43;;;;;;;143.52;71.30;;;;;;;;;;4985980;28;20207;-51
2022/07/04 04:46:09;;;;;;;165.20;76.28;;;;;;;;;;4981287;28;20303;-51
2022/07/04 04:48:35;;;;;;;137.45;65.68;;;;;;;;;;4980835;28;20304;-51
2022/07/04 04:51:01;;;;;;;89.78;60.97;;;;;;;;;;4992375;28;20591;-51
2022/07/04 04:53:27;;;;;;;116.07;59.15;;;;;;;;;;4988059;28;20220;-51
2022/07/04 04:55:54;;;;;;;153.45;70.82;;;;;;;;;;4983325;28;20224;-51
2022/07/04 04:58:20;;;;;;;143.00;70.10;;;;;;;;;;4985764;28;20502;-51
2022/07/04 05:00:48;;;;;;;146.63;71.18;;;;;;;;;;4983743;28;20641;-50
2022/07/04 05:03:14;;;;;;;121.70;64.68;;;;;;;;;;4989011;28;20202;-51
2022/07/04 05:05:40;;;;;;;191.07;87.43;;;;;;;;;;4991024;28;20241;-51
2022/07/04 05:08:06;;;;;;;154.93;74.60;;;;;;;;;;4994708;28;20221;-50
2022/07/04 05:10:32;;;;;;;152.40;78.88;;;;;;;;;;4986549;28;20223;-50
2022/07/04 05:12:58;;;;;;;107.97;65.93;;;;;;;;;;4987122;28;20252;-51
2022/07/04 05:15:23;;;;;;;162.60;76.90;;;;;;;;;;4987691;28;20228;-51
2022/07/04 05:17:50;;;;;;;155.77;79.85;;;;;;;;;;4989915;28;20592;-50
2022/07/04 05:20:16;;;;;;;128.90;76.95;;;;;;;;;;4992252;28;20297;-51
2022/07/04 05:22:42;;;;;;;111.80;75.30;;;;;;;;;;4995938;28;20216;-51
2022/07/04 05:25:08;;;;;;;78.68;63.75;;;;;;;;;;4987537;28;20220;-54
2022/07/04 05:27:34;;;;;;;109.80;78.88;;;;;;;;;;4992377;28;20227;-54
2022/07/04 05:30:00;;;;;;;152.10;86.22;;;;;;;;;;4986548;28;20189;-54
2022/07/04 05:32:26;;;;;;;151.55;83.60;;;;;;;;;;4984365;28;20219;-54
2022/07/04 05:34:52;;;;;;;191.35;92.53;;;;;;;;;;4975776;28;20220;-53
2022/07/04 05:37:19;;;;;;;172.48;92.53;;;;;;;;;;4992729;28;20240;-53
2022/07/04 05:39:45;;;;;;;135.68;74.60;;;;;;;;;;4986437;28;20257;-53
2022/07/04 05:42:11;;;;;;;156.43;75.22;;;;;;;;;;4987550;28;20235;-53
2022/07/04 05:44:37;;;;;;;250.80;109.95;;;;;;;;;;4989852;28;20224;-53
2022/07/04 05:47:03;;;;;;;139.85;72.57;;;;;;;;;;4988031;28;20220;-53
2022/07/04 05:49:29;;;;;;;229.50;97.88;;;;;;;;;;4986264;28;20224;-53
2022/07/04 05:51:55;;;;;;;161.45;96.22;;;;;;;;;;4986069;28;20319;-53
2022/07/04 05:54:21;;;;;;;137.68;86.20;;;;;;;;;;4988383;28;20184;-53
2022/07/04 05:56:47;;;;;;;130.75;84.97;;;;;;;;;;4984307;28;20547;-53
2022/07/04 05:59:13;;;;;;;235.77;108.88;;;;;;;;;;4987545;28;22795;-52
2022/07/04 06:01:39;;;;;;;305.73;116.28;;;;;;;;;;4978081;28;20231;-53
2022/07/04 06:04:05;;;;;;;144.05;90.50;;;;;;;;;;4967666;28;20472;-53
2022/07/04 06:06:31;;;;;;;180.10;111.70;;;;;;;;;;4985775;28;21028;-52
2022/07/04 06:08:58;;;;;;;229.75;145.65;;;;;;;;;;4977454;28;20186;-53
2022/07/04 06:11:24;;;;;;;256.25;132.55;;;;;;;;;;4976402;28;20220;-52
2022/07/04 06:13:50;;;;;;;169.55;103.53;;;;;;;;;;4982838;28;20213;-51
2022/07/04 06:16:16;;;;;;;200.45;118.00;;;;;;;;;;4977755;28;20354;-52
2022/07/04 06:18:42;;;;;;;241.60;118.53;;;;;;;;;;4977725;28;20629;-52
2022/07/04 06:21:08;;;;;;;191.30;107.80;;;;;;;;;;4980176;28;20177;-52
2022/07/04 06:23:34;;;;;;;146.35;121.47;;;;;;;;;;4988597;28;20220;-51
2022/07/04 06:26:00;;;;;;;191.00;134.55;;;;;;;;;;4995095;28;20219;-51
2022/07/04 06:28:26;;;;;;;249.27;152.23;;;;;;;;;;4992556;28;20831;-52
2022/07/04 06:30:52;;;;;;;221.73;156.23;;;;;;;;;;4988906;28;20319;-52
2022/07/04 06:33:18;;;;;;;247.25;162.85;;;;;;;;;;4992174;28;20193;-52
2022/07/04 06:35:45;;;;;;;264.65;162.52;;;;;;;;;;4981217;28;20201;-51
2022/07/04 06:38:15;;;;;;;241.15;158.50;;;;;;;;;;4983683;28;20217;-53
2022/07/04 06:40:42;;;;;;;135.88;121.13;;;;;;;;;;4990690;28;20312;-52
2022/07/04 06:43:08;;;;;;;155.85;128.05;;;;;;;;;;4992204;28;20348;-53
2022/07/04 06:45:34;;;;;;;297.35;183.80;;;;;;;;;;4992091;28;20225;-52
2022/07/04 06:48:00;;;;;;;220.80;150.13;;;;;;;;;;4989951;28;20346;-53
2022/07/04 06:50:26;;;;;;;183.52;141.25;;;;;;;;;;4990565;28;20739;-52
2022/07/04 06:52:52;;;;;;;147.23;131.35;;;;;;;;;;4996734;28;20213;-52
2022/07/04 06:55:18;;;;;;;145.52;125.70;;;;;;;;;;4997189;28;20351;-53
2022/07/04 06:57:44;;;;;;;172.32;136.32;;;;;;;;;;4996569;28;20223;-52
2022/07/04 07:00:11;;;;;;;160.88;129.65;;;;;;;;;;4993609;28;20181;-52
2022/07/04 07:02:37;;;;;;;250.63;164.07;;;;;;;;;;4994018;28;20286;-52
2022/07/04 07:05:04;;;;;;;183.70;139.52;;;;;;;;;;4991623;28;20221;-53
2022/07/04 07:07:30;;;;;;;190.57;148.98;;;;;;;;;;4989675;28;20209;-50
2022/07/04 07:09:56;;;;;;;161.73;134.77;;;;;;;;;;4991441;28;21010;-49
2022/07/04 07:12:22;;;;;;;212.43;162.45;;;;;;;;;;4992559;28;20181;-50
2022/07/04 07:14:49;;;;;;;236.30;161.18;;;;;;;;;;4991644;28;20192;-50
2022/07/04 07:17:15;;;;;;;169.05;133.50;;;;;;;;;;4982732;28;20221;-49
2022/07/04 07:19:42;;;;;;;165.65;135.48;;;;;;;;;;4989652;28;20224;-50
2022/07/04 07:22:08;;;;;;;154.52;128.27;;;;;;;;;;4984211;28;20282;-49
2022/07/04 07:24:34;;;;;;;137.27;124.07;;;;;;;;;;4994425;28;20565;-51
2022/07/04 07:27:00;;;;;;;136.25;121.72;;;;;;;;;;4986136;28;20502;-51
2022/07/04 07:29:26;;;;;;;175.52;134.77;;;;;;;;;;4994365;28;20270;-50
2022/07/04 07:31:52;;;;;;;187.10;149.32;;;;;;;;;;4989093;28;20216;-50
2022/07/04 07:34:18;;;;;;;151.52;131.70;;;;;;;;;;4995016;28;20218;-51
2022/07/04 07:36:44;;;;;;;142.32;127.75;;;;;;;;;;4996599;28;20785;-51
2022/07/04 07:39:10;;;;;;;130.45;114.65;;;;;;;;;;4997772;28;20196;-51
2022/07/04 07:41:36;;;;;;;154.82;130.20;;;;;;;;;;4993529;28;20177;-51
2022/07/04 07:44:02;;;;;;;184.98;139.80;;;;;;;;;;4997030;28;20224;-51
2022/07/04 07:46:28;;;;;;;135.00;120.53;;;;;;;;;;4991053;28;20533;-51
2022/07/04 07:48:54;;;;;;;173.98;144.88;;;;;;;;;;4993395;28;20570;-50
2022/07/04 07:51:20;;;;;;;151.82;136.35;;;;;;;;;;4994112;28;20666;-51
2022/07/04 07:53:46;;;;;;;230.93;163.10;;;;;;;;;;5007261;28;20177;-51
2022/07/04 07:56:13;;;;;;;209.60;158.07;;;;;;;;;;4993524;28;20870;-51
2022/07/04 07:58:39;;;;;;;191.95;154.57;;;;;;;;;;4989751;28;20208;-51
2022/07/04 08:01:04;;;;;;;183.85;164.80;;;;;;;;;;5006311;28;20218;-50
2022/07/04 08:06:16;;;;;;;184.70;165.32;;;;;;;;;;4995358;28;20219;-50
2022/07/04 08:08:42;;;;;;;243.77;201.18;;;;;;;;;;4995120;28;20189;-50
2022/07/04 08:11:08;;;;;;;193.68;173.88;;;;;;;;;;4999673;28;20303;-49
2022/07/04 08:13:34;;;;;;;209.63;183.48;;;;;;;;;;4993940;28;20213;-51
2022/07/04 08:16:00;;;;;;;174.57;156.13;;;;;;;;;;4995536;28;20252;-51
2022/07/04 08:18:26;;;;;;;187.18;167.60;;;;;;;;;;5002248;28;20309;-50
2022/07/04 08:20:53;;;;;;;243.88;200.00;;;;;;;;;;4993799;28;20665;-51
2022/07/04 08:23:19;;;;;;;199.85;178.35;;;;;;;;;;4993005;28;20228;-51
2022/07/04 08:25:44;;;;;;;254.63;206.85;;;;;;;;;;4993492;28;20216;-51
2022/07/04 08:28:10;;;;;;;243.15;196.45;;;;;;;;;;4992754;28;20567;-51
2022/07/04 08:30:36;;;;;;;288.70;214.07;;;;;;;;;;4987334;28;20213;-51
2022/07/04 08:33:02;;;;;;;181.32;161.43;;;;;;;;;;4995537;28;20586;-50
2022/07/04 08:35:28;;;;;;;188.50;149.77;;;;;;;;;;4993317;28;20241;-51
2022/07/04 08:37:55;;;;;;;199.18;162.60;;;;;;;;;;4989758;28;20284;-50
2022/07/04 08:40:25;;;;;;;159.70;143.20;;;;;;;;;;4994666;28;20291;-51
2022/07/04 08:42:51;;;;;;;189.13;170.07;;;;;;;;;;4993968;28;20232;-51
2022/07/04 08:45:17;;;;;;;211.25;185.68;;;;;;;;;;4989391;28;20547;-50
2022/07/04 08:47:44;;;;;;;236.98;184.30;;;;;;;;;;4980906;28;20277;-50
2022/07/04 08:50:12;;;;;;;244.35;201.20;;;;;;;;;;4978478;28;20217;-51
2022/07/04 08:52:48;;;;;;;420.23;248.50;;;;;;;;;;4983507;28;20307;-50
2022/07/04 09:00:44;;;;;;;234.73;188.63;;;;;;;;;;4991800;28;20305;-50
2022/07/04 09:03:10;;;;;;;219.07;192.80;;;;;;;;;;5002671;28;20244;-50
2022/07/04 09:05:36;;;;;;;290.05;225.60;;;;;;;;;;4985405;28;20204;-50
2022/07/04 09:08:03;;;;;;;263.83;212.32;;;;;;;;;;4980852;28;20216;-51
2022/07/04 09:10:30;;;;;;;228.95;190.95;;;;;;;;;;4986358;28;20219;-51
2022/07/04 09:12:57;;;;;;;207.75;185.38;;;;;;;;;;4985104;28;20209;-51
2022/07/04 09:15:23;;;;;;;196.57;175.77;;;;;;;;;;4994246;28;20278;-50
2022/07/04 09:17:49;;;;;;;272.35;223.07;;;;;;;;;;4984835;28;20185;-50
2022/07/04 09:20:19;;;;;;;173.60;157.95;;;;;;;;;;4984477;28;20225;-51
2022/07/04 09:22:45;;;;;;;184.05;166.70;;;;;;;;;;4986458;28;20232;-51
2022/07/04 09:25:15;;;;;;;261.80;186.07;;;;;;;;;;4985225;28;20647;-51
2022/07/04 09:27:44;;;;;;;192.63;171.15;;;;;;;;;;4987883;28;20221;-49
2022/07/04 09:30:10;;;;;;;206.30;165.38;;;;;;;;;;4992075;28;20246;-51
2022/07/04 09:32:44;;;;;;;157.73;141.45;;;;;;;;;;4988895;28;20173;-50
2022/07/04 09:35:16;;;;;;;216.00;180.43;;;;;;;;;;4990481;28;20224;-51
2022/07/04 09:37:45;;;;;;;203.57;181.23;;;;;;;;;;4988572;28;20229;-53
2022/07/04 09:40:11;;;;;;;186.18;168.63;;;;;;;;;;4988746;28;20598;-53
2022/07/04 09:42:38;;;;;;;276.85;215.98;;;;;;;;;;4990733;28;20236;-53
2022/07/04 09:45:05;;;;;;;304.48;226.40;;;;;;;;;;4978224;28;20193;-53
2022/07/04 09:47:31;;;;;;;225.38;195.63;;;;;;;;;;4977681;28;20225;-53
2022/07/04 09:50:00;;;;;;;235.85;208.70;;;;;;;;;;5004926;28;20232;-53
2022/07/04 09:52:27;;;;;;;272.58;209.52;;;;;;;;;;4988819;28;20225;-53
2022/07/04 09:54:57;;;;;;;279.75;215.20;;;;;;;;;;4984179;28;20715;-53
2022/07/04 09:57:23;;;;;;;237.57;178.27;;;;;;;;;;4986347;28;20228;-53
2022/07/04 09:59:49;;;;;;;166.63;151.38;;;;;;;;;;4992268;28;20186;-53
2022/07/04 10:02:15;;;;;;;203.65;181.32;;;;;;;;;;4991171;28;20221;-53
2022/07/04 10:04:42;;;;;;;220.82;180.43;;;;;;;;;;4997758;28;20270;-53
2022/07/04 10:07:08;;;;;;;230.15;193.40;;;;;;;;;;4991646;28;20213;-52
2022/07/04 10:09:34;;;;;;;206.52;174.60;;;;;;;;;;4993036;28;20721;-53
2022/07/04 10:12:01;;;;;;;169.30;151.32;;;;;;;;;;4992060;28;20659;-53
2022/07/04 10:14:27;;;;;;;237.38;175.50;;;;;;;;;;4982758;28;20259;-52
2022/07/04 10:16:53;;;;;;;198.02;177.48;;;;;;;;;;4986607;28;20897;-53
2022/07/04 10:19:20;;;;;;;209.27;186.52;;;;;;;;;;4988192;28;20222;-53
2022/07/04 10:21:46;;;;;;;246.00;195.73;;;;;;;;;;4986100;28;20373;-54
2022/07/04 10:24:12;;;;;;;248.15;211.15;;;;;;;;;;4992244;28;20524;-54
2022/07/04 10:26:38;;;;;;;257.75;226.70;;;;;;;;;;4989195;28;20196;-53
2022/07/04 10:29:04;;;;;;;233.43;206.70;;;;;;;;;;4993610;28;20638;-53
2022/07/04 10:31:32;;;;;;;262.88;216.05;;;;;;;;;;4983140;28;20220;-53
2022/07/04 10:33:58;;;;;;;245.82;219.63;;;;;;;;;;4987034;28;20316;-53
2022/07/04 10:36:28;;;;;;;243.98;216.95;;;;;;;;;;4989337;28;20399;-53
2022/07/04 10:39:01;;;;;;;244.85;218.55;;;;;;;;;;4996028;28;20545;-53
2022/07/04 10:41:31;;;;;;;285.48;236.38;;;;;;;;;;4991022;28;20304;-53
2022/07/04 10:44:09;;;;;;;255.70;227.18;;;;;;;;;;4984125;28;20610;-53
2022/07/04 10:46:36;;;;;;;247.50;220.23;;;;;;;;;;4989050;28;20593;-52
2022/07/04 10:49:06;;;;;;;246.90;217.02;;;;;;;;;;4986470;28;20210;-53
2022/07/04 10:51:33;;;;;;;279.60;241.35;;;;;;;;;;4990941;28;20630;-53
2022/07/04 10:54:00;;;;;;;305.13;254.75;;;;;;;;;;4985971;28;20170;-53
2022/07/04 10:56:25;;;;;;;269.30;237.45;;;;;;;;;;4986083;28;20208;-54
2022/07/04 10:58:51;;;;;;;311.77;259.38;;;;;;;;;;4984292;28;20209;-53
2022/07/04 11:01:21;;;;;;;267.38;237.90;;;;;;;;;;4990591;28;20213;-54
2022/07/04 11:03:46;;;;;;;269.55;241.38;;;;;;;;;;4989950;28;20248;-54
2022/07/04 11:06:31;;;;;;;477.60;325.05;;;;;;;;;;4970865;28;20243;-53
2022/07/04 11:09:14;;;;;;;319.33;260.73;;;;;;;;;;5008306;28;20193;-54
2022/07/04 11:11:50;;;;;;;257.02;227.32;;;;;;;;;;4978886;28;20208;-53
2022/07/04 11:14:35;;;;;;;287.70;247.10;;;;;;;;;;4984597;28;20308;-53
2022/07/04 11:17:01;;;;;;;354.42;265.25;;;;;;;;;;4994959;28;20232;-53
2022/07/04 11:19:30;;;;;;;320.90;244.75;;;;;;;;;;4988254;28;20221;-53
2022/07/04 11:21:56;;;;;;;292.48;238.90;;;;;;;;;;4994018;28;20308;-54
2022/07/04 11:24:23;;;;;;;371.45;273.80;;;;;;;;;;4986813;28;20220;-53
2022/07/04 11:26:49;;;;;;;355.60;271.20;;;;;;;;;;4980281;28;20219;-54
2022/07/04 11:29:15;;;;;;;250.80;216.98;;;;;;;;;;4992281;28;20575;-53
2022/07/04 11:31:42;;;;;;;275.58;235.52;;;;;;;;;;4990181;28;20227;-54
2022/07/04 11:34:08;;;;;;;312.20;256.67;;;;;;;;;;4991635;28;20586;-54
2022/07/04 11:36:34;;;;;;;373.98;282.83;;;;;;;;;;4976295;28;20217;-53
2022/07/04 11:39:02;;;;;;;385.75;293.10;;;;;;;;;;4977002;28;20264;-53
2022/07/04 11:47:10;;;;;;;328.38;278.60;;;;;;;;;;4980912;28;20268;-53
2022/07/04 11:49:36;;;;;;;305.65;261.02;;;;;;;;;;4990977;28;20216;-54
2022/07/04 11:52:02;;;;;;;315.67;268.35;;;;;;;;;;4986948;28;20221;-53
2022/07/04 11:54:28;;;;;;;407.48;296.85;;;;;;;;;;4980509;28;20325;-53
2022/07/04 11:57:08;;;;;;;324.33;259.92;;;;;;;;;;4981837;28;20333;-53
2022/07/04 11:59:34;;;;;;;252.05;225.77;;;;;;;;;;4986711;28;20709;-52
2022/07/04 12:02:10;;;;;;;363.98;281.50;;;;;;;;;;4983255;28;20228;-51
2022/07/04 12:04:38;;;;;;;273.42;236.93;;;;;;;;;;4992694;28;20219;-52
2022/07/04 12:07:08;;;;;;;354.52;277.67;;;;;;;;;;4988256;28;20224;-55
2022/07/04 12:09:34;;;;;;;328.85;258.63;;;;;;;;;;4987892;28;20685;-54
2022/07/04 12:12:00;;;;;;;314.52;266.05;;;;;;;;;;4981524;28;20196;-54
2022/07/04 12:14:27;;;;;;;365.08;276.67;;;;;;;;;;4981405;28;20781;-53
2022/07/04 12:17:09;;;;;;;358.60;291.90;;;;;;;;;;4978158;28;20225;-53
2022/07/04 12:19:35;;;;;;;303.95;272.73;;;;;;;;;;4980108;28;20795;-54
2022/07/04 12:22:01;;;;;;;364.73;303.13;;;;;;;;;;4982214;28;20582;-54
2022/07/04 12:24:28;;;;;;;432.10;324.92;;;;;;;;;;4981542;28;20209;-54
2022/07/04 12:26:53;;;;;;;374.13;308.05;;;;;;;;;;4980710;28;20231;-54
2022/07/04 12:29:27;;;;;;;371.83;314.52;;;;;;;;;;4986654;28;20216;-55
2022/07/04 12:31:53;;;;;;;312.20;278.05;;;;;;;;;;4989477;28;20210;-54
2022/07/04 12:34:19;;;;;;;363.55;303.25;;;;;;;;;;4989201;28;20240;-54
2022/07/04 12:36:52;;;;;;;322.88;279.20;;;;;;;;;;4983123;28;20239;-53
2022/07/04 12:39:31;;;;;;;297.95;264.92;;;;;;;;;;4987287;28;20189;-54
2022/07/04 12:42:16;;;;;;;323.10;284.88;;;;;;;;;;4994214;28;20217;-53
2022/07/04 12:44:43;;;;;;;317.58;281.05;;;;;;;;;;4988441;28;20216;-54
2022/07/04 12:47:10;;;;;;;375.50;296.77;;;;;;;;;;4984519;28;20232;-53
2022/07/04 12:49:36;;;;;;;306.25;272.75;;;;;;;;;;4982431;28;20212;-54
2022/07/04 12:52:05;;;;;;;286.98;258.58;;;;;;;;;;4985176;28;20217;-53
2022/07/04 12:54:31;;;;;;;373.90;289.92;;;;;;;;;;4978784;28;20307;-53
2022/07/04 12:57:18;;;;;;;412.80;309.00;;;;;;;;;;4971785;28;20215;-53
2022/07/04 12:59:44;;;;;;;420.95;319.25;;;;;;;;;;4978811;28;20208;-53
2022/07/04 13:02:11;;;;;;;402.83;331.10;;;;;;;;;;4983723;28;20861;-54
2022/07/04 13:04:38;;;;;;;394.67;334.10;;;;;;;;;;4973800;28;20629;-53
2022/07/04 13:07:16;;;;;;;415.35;329.83;;;;;;;;;;4970762;28;20252;-54
2022/07/04 13:09:43;;;;;;;400.00;329.92;;;;;;;;;;4992847;28;20311;-53
2022/07/04 13:12:24;;;;;;;310.13;280.08;;;;;;;;;;4991974;28;20181;-54
2022/07/04 13:14:54;;;;;;;418.42;341.88;;;;;;;;;;4991265;28;20568;-54
2022/07/04 13:17:20;;;;;;;340.60;303.33;;;;;;;;;;4981644;28;20972;-54
2022/07/04 13:19:46;;;;;;;339.10;302.25;;;;;;;;;;4985393;28;20236;-54
2022/07/04 13:22:12;;;;;;;302.55;272.83;;;;;;;;;;4990511;28;20319;-53
2022/07/04 13:24:38;;;;;;;455.55;356.75;;;;;;;;;;4977138;28;20217;-53
2022/07/04 13:27:04;;;;;;;340.30;304.48;;;;;;;;;;4982736;28;20214;-53
2022/07/04 13:29:30;;;;;;;371.33;316.30;;;;;;;;;;4978823;28;20193;-54
2022/07/04 13:31:56;;;;;;;346.40;309.65;;;;;;;;;;4978192;28;20233;-54
2022/07/04 13:34:22;;;;;;;384.58;318.30;;;;;;;;;;4980366;28;20705;-52
2022/07/04 13:36:48;;;;;;;337.83;298.40;;;;;;;;;;4993004;28;20224;-54
2022/07/04 13:39:16;;;;;;;336.50;300.88;;;;;;;;;;5000718;28;20281;-54
2022/07/04 13:41:42;;;;;;;327.50;293.05;;;;;;;;;;4997829;28;20193;-53
2022/07/04 13:44:09;;;;;;;398.52;330.77;;;;;;;;;;4986114;28;20352;-54
2022/07/04 13:46:36;;;;;;;337.00;303.05;;;;;;;;;;4980114;28;20209;-54
2022/07/04 13:49:02;;;;;;;346.80;309.08;;;;;;;;;;4982886;28;20220;-54
2022/07/04 13:51:28;;;;;;;363.38;313.50;;;;;;;;;;4982507;28;20218;-52
2022/07/04 13:53:54;;;;;;;377.85;319.63;;;;;;;;;;4981959;28;20929;-53
2022/07/04 13:56:20;;;;;;;434.88;345.63;;;;;;;;;;4984311;28;20236;-54
2022/07/04 13:58:47;;;;;;;333.95;302.42;;;;;;;;;;4989123;28;20220;-54
2022/07/04 14:01:14;;;;;;;352.73;314.75;;;;;;;;;;4977535;28;20224;-53
2022/07/04 14:03:42;;;;;;;507.40;371.40;;;;;;;;;;4973135;28;20756;-53
2022/07/04 14:06:08;;;;;;;368.73;332.90;;;;;;;;;;4996281;28;20240;-53
2022/07/04 14:08:34;;;;;;;354.55;319.13;;;;;;;;;;4998550;28;20247;-52
2022/07/04 14:11:00;;;;;;;403.25;359.40;;;;;;;;;;4985546;28;20213;-54
2022/07/04 14:13:26;;;;;;;389.90;347.95;;;;;;;;;;4975527;28;20638;-53